sensor_id;sensor_type;location;lat;lon;timestamp;P1;durP1;ratioP1;P2;durP2;ratioP2
69629;SDS011;56857;52.212;5.496;2022-08-19T00:00:53;13.20;;;6.22;;
69629;SDS011;56857;52.212;5.496;2022-08-19T00:03:18;11.90;;;6.32;;
69629;SDS011;56857;52.212;5.496;2022-08-19T00:05:44;8.63;;;5.70;;
69629;SDS011;56857;52.212;5.496;2022-08-19T00:08:09;9.90;;;5.82;;
69629;SDS011;56857;52.212;5.496;2022-08-19T00:10:35;10.60;;;6.22;;
69629;SDS011;56857;52.212;5.496;2022-08-19T00:13:00;9.88;;;5.85;;
69629;SDS011;56857;52.212;5.496;2022-08-19T00:15:25;12.25;;;6.28;;
69629;SDS011;56857;52.212;5.496;2022-08-19T00:17:50;10.65;;;6.25;;
69629;SDS011;56857;52.212;5.496;2022-08-19T00:20:17;8.48;;;5.90;;
69629;SDS011;56857;52.212;5.496;2022-08-19T00:22:45;8.93;;;5.43;;
69629;SDS011;56857;52.212;5.496;2022-08-19T00:25:10;9.32;;;5.15;;
69629;SDS011;56857;52.212;5.496;2022-08-19T00:27:36;8.93;;;5.28;;
69629;SDS011;56857;52.212;5.496;2022-08-19T00:30:02;8.00;;;4.50;;
69629;SDS011;56857;52.212;5.496;2022-08-19T00:32:29;11.20;;;4.78;;
69629;SDS011;56857;52.212;5.496;2022-08-19T00:34:55;8.18;;;4.70;;
69629;SDS011;56857;52.212;5.496;2022-08-19T00:37:21;8.00;;;5.30;;
69629;SDS011;56857;52.212;5.496;2022-08-19T00:39:47;9.50;;;5.03;;
69629;SDS011;56857;52.212;5.496;2022-08-19T00:42:14;8.40;;;5.05;;
69629;SDS011;56857;52.212;5.496;2022-08-19T00:44:39;8.90;;;4.57;;
69629;SDS011;56857;52.212;5.496;2022-08-19T00:47:05;7.90;;;4.70;;
69629;SDS011;56857;52.212;5.496;2022-08-19T00:49:32;7.95;;;5.07;;
69629;SDS011;56857;52.212;5.496;2022-08-19T00:52:06;8.60;;;4.78;;
69629;SDS011;56857;52.212;5.496;2022-08-19T00:54:36;8.02;;;4.57;;
69629;SDS011;56857;52.212;5.496;2022-08-19T00:57:04;8.15;;;5.15;;
69629;SDS011;56857;52.212;5.496;2022-08-19T00:59:34;6.97;;;4.32;;
69629;SDS011;56857;52.212;5.496;2022-08-19T01:02:02;8.73;;;4.45;;
69629;SDS011;56857;52.212;5.496;2022-08-19T01:04:27;8.88;;;4.68;;
69629;SDS011;56857;52.212;5.496;2022-08-19T01:06:52;10.07;;;4.70;;
69629;SDS011;56857;52.212;5.496;2022-08-19T01:09:17;9.75;;;4.35;;
69629;SDS011;56857;52.212;5.496;2022-08-19T01:11:43;8.18;;;4.80;;
69629;SDS011;56857;52.212;5.496;2022-08-19T01:14:10;8.40;;;4.90;;
69629;SDS011;56857;52.212;5.496;2022-08-19T01:16:36;7.00;;;4.43;;
69629;SDS011;56857;52.212;5.496;2022-08-19T01:19:03;7.30;;;4.18;;
69629;SDS011;56857;52.212;5.496;2022-08-19T01:21:42;7.15;;;4.15;;
69629;SDS011;56857;52.212;5.496;2022-08-19T01:24:15;8.43;;;4.70;;
69629;SDS011;56857;52.212;5.496;2022-08-19T01:26:41;10.38;;;4.80;;
69629;SDS011;56857;52.212;5.496;2022-08-19T01:29:08;7.93;;;4.22;;
69629;SDS011;56857;52.212;5.496;2022-08-19T01:31:33;8.18;;;4.63;;
69629;SDS011;56857;52.212;5.496;2022-08-19T01:34:00;8.45;;;5.28;;
69629;SDS011;56857;52.212;5.496;2022-08-19T01:36:37;8.70;;;5.63;;
69629;SDS011;56857;52.212;5.496;2022-08-19T01:39:06;9.18;;;5.03;;
69629;SDS011;56857;52.212;5.496;2022-08-19T01:41:33;11.93;;;5.05;;
69629;SDS011;56857;52.212;5.496;2022-08-19T01:43:59;7.55;;;4.53;;
69629;SDS011;56857;52.212;5.496;2022-08-19T01:46:25;7.90;;;4.38;;
69629;SDS011;56857;52.212;5.496;2022-08-19T01:48:50;7.85;;;5.00;;
69629;SDS011;56857;52.212;5.496;2022-08-19T01:51:16;10.73;;;5.60;;
69629;SDS011;56857;52.212;5.496;2022-08-19T01:53:41;8.75;;;4.82;;
69629;SDS011;56857;52.212;5.496;2022-08-19T01:56:06;9.95;;;5.22;;
69629;SDS011;56857;52.212;5.496;2022-08-19T01:58:36;8.98;;;5.40;;
69629;SDS011;56857;52.212;5.496;2022-08-19T02:01:06;7.40;;;4.82;;
69629;SDS011;56857;52.212;5.496;2022-08-19T02:03:32;10.07;;;5.00;;
69629;SDS011;56857;52.212;5.496;2022-08-19T02:05:58;9.50;;;5.50;;
69629;SDS011;56857;52.212;5.496;2022-08-19T02:08:25;8.18;;;5.47;;
69629;SDS011;56857;52.212;5.496;2022-08-19T02:10:51;12.20;;;5.20;;
69629;SDS011;56857;52.212;5.496;2022-08-19T02:13:17;9.23;;;5.57;;
69629;SDS011;56857;52.212;5.496;2022-08-19T02:15:42;9.50;;;5.35;;
69629;SDS011;56857;52.212;5.496;2022-08-19T02:18:07;9.38;;;5.50;;
69629;SDS011;56857;52.212;5.496;2022-08-19T02:20:33;9.25;;;5.43;;
69629;SDS011;56857;52.212;5.496;2022-08-19T02:22:59;9.10;;;5.68;;
69629;SDS011;56857;52.212;5.496;2022-08-19T02:25:24;10.07;;;6.10;;
69629;SDS011;56857;52.212;5.496;2022-08-19T02:27:50;10.30;;;6.18;;
69629;SDS011;56857;52.212;5.496;2022-08-19T02:30:16;9.43;;;5.40;;
69629;SDS011;56857;52.212;5.496;2022-08-19T02:32:42;9.45;;;6.10;;
69629;SDS011;56857;52.212;5.496;2022-08-19T02:35:08;10.85;;;6.60;;
69629;SDS011;56857;52.212;5.496;2022-08-19T02:37:34;9.45;;;6.03;;
69629;SDS011;56857;52.212;5.496;2022-08-19T02:39:59;9.40;;;6.30;;
69629;SDS011;56857;52.212;5.496;2022-08-19T02:42:25;10.45;;;6.35;;
69629;SDS011;56857;52.212;5.496;2022-08-19T02:44:50;11.02;;;6.85;;
69629;SDS011;56857;52.212;5.496;2022-08-19T02:47:15;10.75;;;6.82;;
69629;SDS011;56857;52.212;5.496;2022-08-19T02:49:41;10.63;;;6.88;;
69629;SDS011;56857;52.212;5.496;2022-08-19T02:52:06;11.95;;;6.07;;
69629;SDS011;56857;52.212;5.496;2022-08-19T02:54:32;9.60;;;6.07;;
69629;SDS011;56857;52.212;5.496;2022-08-19T02:56:57;10.13;;;6.40;;
69629;SDS011;56857;52.212;5.496;2022-08-19T02:59:22;12.93;;;7.20;;
69629;SDS011;56857;52.212;5.496;2022-08-19T03:01:48;10.60;;;6.88;;
69629;SDS011;56857;52.212;5.496;2022-08-19T03:04:13;9.93;;;6.75;;
69629;SDS011;56857;52.212;5.496;2022-08-19T03:06:41;9.80;;;6.32;;
69629;SDS011;56857;52.212;5.496;2022-08-19T03:09:09;10.55;;;6.70;;
69629;SDS011;56857;52.212;5.496;2022-08-19T03:11:35;15.40;;;7.07;;
69629;SDS011;56857;52.212;5.496;2022-08-19T03:14:02;11.27;;;7.15;;
69629;SDS011;56857;52.212;5.496;2022-08-19T03:16:30;11.50;;;6.75;;
69629;SDS011;56857;52.212;5.496;2022-08-19T03:18:57;12.07;;;7.45;;
69629;SDS011;56857;52.212;5.496;2022-08-19T03:21:24;11.40;;;7.47;;
69629;SDS011;56857;52.212;5.496;2022-08-19T03:23:54;12.30;;;6.47;;
69629;SDS011;56857;52.212;5.496;2022-08-19T03:26:21;11.55;;;7.60;;
69629;SDS011;56857;52.212;5.496;2022-08-19T03:28:46;13.27;;;8.30;;
69629;SDS011;56857;52.212;5.496;2022-08-19T03:31:13;12.45;;;7.65;;
69629;SDS011;56857;52.212;5.496;2022-08-19T03:33:39;12.27;;;8.25;;
69629;SDS011;56857;52.212;5.496;2022-08-19T03:36:12;11.20;;;7.43;;
69629;SDS011;56857;52.212;5.496;2022-08-19T03:38:41;10.73;;;7.40;;
69629;SDS011;56857;52.212;5.496;2022-08-19T03:41:09;11.65;;;7.57;;
69629;SDS011;56857;52.212;5.496;2022-08-19T03:43:38;11.93;;;7.75;;
69629;SDS011;56857;52.212;5.496;2022-08-19T03:46:05;11.00;;;7.55;;
69629;SDS011;56857;52.212;5.496;2022-08-19T03:48:33;13.25;;;8.65;;
69629;SDS011;56857;52.212;5.496;2022-08-19T03:51:00;13.15;;;7.38;;
69629;SDS011;56857;52.212;5.496;2022-08-19T03:53:27;11.35;;;7.55;;
69629;SDS011;56857;52.212;5.496;2022-08-19T03:55:53;11.25;;;7.75;;
69629;SDS011;56857;52.212;5.496;2022-08-19T03:58:20;14.55;;;7.57;;
69629;SDS011;56857;52.212;5.496;2022-08-19T04:00:47;11.63;;;6.75;;
69629;SDS011;56857;52.212;5.496;2022-08-19T04:03:12;9.43;;;6.05;;
69629;SDS011;56857;52.212;5.496;2022-08-19T04:05:37;12.18;;;7.05;;
69629;SDS011;56857;52.212;5.496;2022-08-19T04:08:03;10.23;;;7.20;;
69629;SDS011;56857;52.212;5.496;2022-08-19T04:10:29;11.88;;;7.85;;
69629;SDS011;56857;52.212;5.496;2022-08-19T04:12:54;10.18;;;6.78;;
69629;SDS011;56857;52.212;5.496;2022-08-19T04:15:19;11.75;;;6.60;;
69629;SDS011;56857;52.212;5.496;2022-08-19T04:17:45;12.75;;;7.93;;
69629;SDS011;56857;52.212;5.496;2022-08-19T04:20:10;10.80;;;7.18;;
69629;SDS011;56857;52.212;5.496;2022-08-19T04:22:35;13.32;;;8.65;;
69629;SDS011;56857;52.212;5.496;2022-08-19T04:25:01;10.88;;;7.13;;
69629;SDS011;56857;52.212;5.496;2022-08-19T04:27:26;10.35;;;6.43;;
69629;SDS011;56857;52.212;5.496;2022-08-19T04:29:51;10.23;;;7.15;;
69629;SDS011;56857;52.212;5.496;2022-08-19T04:32:18;9.45;;;6.70;;
69629;SDS011;56857;52.212;5.496;2022-08-19T04:34:43;10.07;;;6.57;;
69629;SDS011;56857;52.212;5.496;2022-08-19T04:37:08;10.48;;;6.88;;
69629;SDS011;56857;52.212;5.496;2022-08-19T04:39:34;11.48;;;7.53;;
69629;SDS011;56857;52.212;5.496;2022-08-19T04:41:59;11.77;;;7.38;;
69629;SDS011;56857;52.212;5.496;2022-08-19T04:44:25;11.00;;;7.47;;
69629;SDS011;56857;52.212;5.496;2022-08-19T04:46:51;13.45;;;8.05;;
69629;SDS011;56857;52.212;5.496;2022-08-19T04:49:18;11.77;;;7.50;;
69629;SDS011;56857;52.212;5.496;2022-08-19T04:51:46;13.50;;;8.10;;
69629;SDS011;56857;52.212;5.496;2022-08-19T04:54:11;11.75;;;8.45;;
69629;SDS011;56857;52.212;5.496;2022-08-19T04:56:38;11.73;;;8.25;;
69629;SDS011;56857;52.212;5.496;2022-08-19T04:59:04;11.02;;;8.15;;
69629;SDS011;56857;52.212;5.496;2022-08-19T05:01:30;11.23;;;7.88;;
69629;SDS011;56857;52.212;5.496;2022-08-19T05:03:57;11.85;;;7.97;;
69629;SDS011;56857;52.212;5.496;2022-08-19T05:06:23;13.07;;;8.73;;
69629;SDS011;56857;52.212;5.496;2022-08-19T05:08:48;12.55;;;7.80;;
69629;SDS011;56857;52.212;5.496;2022-08-19T05:11:15;13.18;;;7.93;;
69629;SDS011;56857;52.212;5.496;2022-08-19T05:13:44;13.10;;;7.95;;
69629;SDS011;56857;52.212;5.496;2022-08-19T05:16:11;11.07;;;7.55;;
69629;SDS011;56857;52.212;5.496;2022-08-19T05:18:37;14.35;;;7.13;;
69629;SDS011;56857;52.212;5.496;2022-08-19T05:21:08;9.95;;;6.90;;
69629;SDS011;56857;52.212;5.496;2022-08-19T05:23:35;11.98;;;6.20;;
69629;SDS011;56857;52.212;5.496;2022-08-19T05:26:00;11.95;;;7.00;;
69629;SDS011;56857;52.212;5.496;2022-08-19T05:28:26;12.02;;;7.03;;
69629;SDS011;56857;52.212;5.496;2022-08-19T05:30:51;9.10;;;6.03;;
69629;SDS011;56857;52.212;5.496;2022-08-19T05:33:17;10.05;;;6.45;;
69629;SDS011;56857;52.212;5.496;2022-08-19T05:35:43;8.63;;;6.22;;
69629;SDS011;56857;52.212;5.496;2022-08-19T05:38:09;9.45;;;6.90;;
69629;SDS011;56857;52.212;5.496;2022-08-19T05:40:35;9.25;;;6.63;;
69629;SDS011;56857;52.212;5.496;2022-08-19T05:43:00;10.15;;;6.45;;
69629;SDS011;56857;52.212;5.496;2022-08-19T05:45:26;11.23;;;7.13;;
69629;SDS011;56857;52.212;5.496;2022-08-19T05:47:51;13.98;;;7.88;;
69629;SDS011;56857;52.212;5.496;2022-08-19T05:50:16;12.15;;;7.38;;
69629;SDS011;56857;52.212;5.496;2022-08-19T05:52:42;11.10;;;8.10;;
69629;SDS011;56857;52.212;5.496;2022-08-19T05:55:07;12.30;;;7.38;;
69629;SDS011;56857;52.212;5.496;2022-08-19T05:57:32;10.18;;;7.35;;
69629;SDS011;56857;52.212;5.496;2022-08-19T05:59:58;11.15;;;7.90;;
69629;SDS011;56857;52.212;5.496;2022-08-19T06:02:23;11.20;;;7.43;;
69629;SDS011;56857;52.212;5.496;2022-08-19T06:04:49;11.60;;;7.55;;
69629;SDS011;56857;52.212;5.496;2022-08-19T06:07:14;11.95;;;7.68;;
69629;SDS011;56857;52.212;5.496;2022-08-19T06:09:40;11.25;;;7.82;;
69629;SDS011;56857;52.212;5.496;2022-08-19T06:12:06;12.57;;;8.63;;
69629;SDS011;56857;52.212;5.496;2022-08-19T06:14:32;13.43;;;8.48;;
69629;SDS011;56857;52.212;5.496;2022-08-19T06:16:59;15.38;;;9.32;;
69629;SDS011;56857;52.212;5.496;2022-08-19T06:19:25;14.23;;;9.63;;
69629;SDS011;56857;52.212;5.496;2022-08-19T06:21:51;16.33;;;10.23;;
69629;SDS011;56857;52.212;5.496;2022-08-19T06:24:18;14.05;;;8.95;;
69629;SDS011;56857;52.212;5.496;2022-08-19T06:26:47;17.05;;;10.43;;
69629;SDS011;56857;52.212;5.496;2022-08-19T06:29:14;16.08;;;9.80;;
69629;SDS011;56857;52.212;5.496;2022-08-19T06:31:43;18.45;;;11.25;;
69629;SDS011;56857;52.212;5.496;2022-08-19T06:34:11;19.15;;;11.55;;
69629;SDS011;56857;52.212;5.496;2022-08-19T06:36:40;20.23;;;12.43;;
69629;SDS011;56857;52.212;5.496;2022-08-19T06:39:09;23.02;;;12.65;;
69629;SDS011;56857;52.212;5.496;2022-08-19T06:41:37;21.10;;;13.13;;
69629;SDS011;56857;52.212;5.496;2022-08-19T06:44:05;23.40;;;13.32;;
69629;SDS011;56857;52.212;5.496;2022-08-19T06:46:32;25.70;;;14.20;;
69629;SDS011;56857;52.212;5.496;2022-08-19T06:48:58;26.40;;;15.05;;
69629;SDS011;56857;52.212;5.496;2022-08-19T06:51:24;28.88;;;16.00;;
69629;SDS011;56857;52.212;5.496;2022-08-19T06:53:51;28.23;;;16.23;;
69629;SDS011;56857;52.212;5.496;2022-08-19T06:56:20;35.47;;;17.60;;
69629;SDS011;56857;52.212;5.496;2022-08-19T06:58:47;36.00;;;18.45;;
69629;SDS011;56857;52.212;5.496;2022-08-19T07:01:12;38.50;;;19.63;;
69629;SDS011;56857;52.212;5.496;2022-08-19T07:03:38;40.58;;;20.70;;
69629;SDS011;56857;52.212;5.496;2022-08-19T07:06:07;45.30;;;24.20;;
69629;SDS011;56857;52.212;5.496;2022-08-19T07:11:02;44.92;;;23.48;;
69629;SDS011;56857;52.212;5.496;2022-08-19T07:13:30;46.10;;;23.65;;
69629;SDS011;56857;52.212;5.496;2022-08-19T07:15:56;46.15;;;23.85;;
69629;SDS011;56857;52.212;5.496;2022-08-19T07:18:21;51.53;;;26.48;;
69629;SDS011;56857;52.212;5.496;2022-08-19T07:20:47;48.72;;;25.38;;
69629;SDS011;56857;52.212;5.496;2022-08-19T07:23:12;52.03;;;28.70;;
69629;SDS011;56857;52.212;5.496;2022-08-19T07:25:38;54.22;;;26.80;;
69629;SDS011;56857;52.212;5.496;2022-08-19T07:28:04;55.92;;;26.92;;
69629;SDS011;56857;52.212;5.496;2022-08-19T07:30:29;65.22;;;29.38;;
69629;SDS011;56857;52.212;5.496;2022-08-19T07:32:55;53.72;;;28.05;;
69629;SDS011;56857;52.212;5.496;2022-08-19T07:35:20;56.47;;;28.10;;
69629;SDS011;56857;52.212;5.496;2022-08-19T07:37:46;51.70;;;25.45;;
69629;SDS011;56857;52.212;5.496;2022-08-19T07:40:11;54.20;;;27.80;;
69629;SDS011;56857;52.212;5.496;2022-08-19T07:42:37;54.85;;;27.60;;
69629;SDS011;56857;52.212;5.496;2022-08-19T07:45:03;56.50;;;27.60;;
69629;SDS011;56857;52.212;5.496;2022-08-19T07:47:29;58.20;;;28.10;;
69629;SDS011;56857;52.212;5.496;2022-08-19T07:49:54;53.05;;;28.25;;
69629;SDS011;56857;52.212;5.496;2022-08-19T07:52:19;57.13;;;29.40;;
69629;SDS011;56857;52.212;5.496;2022-08-19T07:54:45;52.03;;;26.58;;
69629;SDS011;56857;52.212;5.496;2022-08-19T07:57:10;58.00;;;28.67;;
69629;SDS011;56857;52.212;5.496;2022-08-19T07:59:35;60.85;;;29.77;;
69629;SDS011;56857;52.212;5.496;2022-08-19T08:02:01;56.42;;;29.95;;
69629;SDS011;56857;52.212;5.496;2022-08-19T08:04:26;61.47;;;29.63;;
69629;SDS011;56857;52.212;5.496;2022-08-19T08:06:53;59.42;;;29.73;;
69629;SDS011;56857;52.212;5.496;2022-08-19T08:09:20;58.42;;;29.98;;
69629;SDS011;56857;52.212;5.496;2022-08-19T08:12:14;49.53;;;28.17;;
69629;SDS011;56857;52.212;5.496;2022-08-19T08:14:47;52.03;;;28.63;;
69629;SDS011;56857;52.212;5.496;2022-08-19T08:17:15;55.20;;;28.75;;
69629;SDS011;56857;52.212;5.496;2022-08-19T08:19:42;51.80;;;28.20;;
69629;SDS011;56857;52.212;5.496;2022-08-19T08:22:08;50.85;;;27.92;;
69629;SDS011;56857;52.212;5.496;2022-08-19T08:24:34;53.65;;;28.85;;
69629;SDS011;56857;52.212;5.496;2022-08-19T08:27:00;49.65;;;29.33;;
69629;SDS011;56857;52.212;5.496;2022-08-19T08:29:27;55.25;;;28.85;;
69629;SDS011;56857;52.212;5.496;2022-08-19T08:31:54;52.05;;;28.17;;
69629;SDS011;56857;52.212;5.496;2022-08-19T08:34:20;50.65;;;27.20;;
69629;SDS011;56857;52.212;5.496;2022-08-19T08:36:45;48.63;;;26.73;;
69629;SDS011;56857;52.212;5.496;2022-08-19T08:39:12;51.58;;;28.48;;
69629;SDS011;56857;52.212;5.496;2022-08-19T08:45:02;48.63;;;25.90;;
69629;SDS011;56857;52.212;5.496;2022-08-19T08:47:36;51.92;;;27.63;;
69629;SDS011;56857;52.212;5.496;2022-08-19T08:50:07;50.88;;;27.40;;
69629;SDS011;56857;52.212;5.496;2022-08-19T08:52:47;49.22;;;24.55;;
69629;SDS011;56857;52.212;5.496;2022-08-19T08:55:17;41.78;;;24.13;;
69629;SDS011;56857;52.212;5.496;2022-08-19T09:00:24;41.90;;;22.98;;
69629;SDS011;56857;52.212;5.496;2022-08-19T09:02:55;45.75;;;23.90;;
69629;SDS011;56857;52.212;5.496;2022-08-19T09:05:22;42.72;;;23.73;;
69629;SDS011;56857;52.212;5.496;2022-08-19T09:18:44;38.75;;;23.10;;
69629;SDS011;56857;52.212;5.496;2022-08-19T09:21:11;35.47;;;21.77;;
69629;SDS011;56857;52.212;5.496;2022-08-19T09:23:37;40.83;;;23.58;;
69629;SDS011;56857;52.212;5.496;2022-08-19T09:26:06;41.38;;;24.45;;
69629;SDS011;56857;52.212;5.496;2022-08-19T09:28:33;42.70;;;22.98;;
69629;SDS011;56857;52.212;5.496;2022-08-19T09:30:59;37.60;;;21.90;;
69629;SDS011;56857;52.212;5.496;2022-08-19T09:33:24;36.25;;;20.55;;
69629;SDS011;56857;52.212;5.496;2022-08-19T09:36:03;35.25;;;20.55;;
69629;SDS011;56857;52.212;5.496;2022-08-19T09:38:31;37.20;;;21.15;;
69629;SDS011;56857;52.212;5.496;2022-08-19T09:41:01;31.98;;;19.33;;
69629;SDS011;56857;52.212;5.496;2022-08-19T09:43:30;34.95;;;20.85;;
69629;SDS011;56857;52.212;5.496;2022-08-19T09:45:56;34.80;;;19.85;;
69629;SDS011;56857;52.212;5.496;2022-08-19T09:48:25;35.13;;;19.35;;
69629;SDS011;56857;52.212;5.496;2022-08-19T09:50:51;38.20;;;22.38;;
69629;SDS011;56857;52.212;5.496;2022-08-19T09:53:16;37.92;;;19.83;;
69629;SDS011;56857;52.212;5.496;2022-08-19T09:55:42;30.83;;;19.42;;
69629;SDS011;56857;52.212;5.496;2022-08-19T09:58:08;35.67;;;21.00;;
69629;SDS011;56857;52.212;5.496;2022-08-19T10:00:33;32.42;;;18.85;;
69629;SDS011;56857;52.212;5.496;2022-08-19T10:03:01;31.63;;;19.88;;
69629;SDS011;56857;52.212;5.496;2022-08-19T10:05:27;30.95;;;19.02;;
69629;SDS011;56857;52.212;5.496;2022-08-19T10:07:52;33.65;;;20.88;;
69629;SDS011;56857;52.212;5.496;2022-08-19T10:10:18;33.40;;;21.90;;
69629;SDS011;56857;52.212;5.496;2022-08-19T10:12:43;30.10;;;18.90;;
69629;SDS011;56857;52.212;5.496;2022-08-19T10:15:09;31.70;;;19.85;;
69629;SDS011;56857;52.212;5.496;2022-08-19T10:17:35;35.33;;;21.30;;
69629;SDS011;56857;52.212;5.496;2022-08-19T10:20:00;33.33;;;20.83;;
69629;SDS011;56857;52.212;5.496;2022-08-19T10:22:26;31.52;;;20.00;;
69629;SDS011;56857;52.212;5.496;2022-08-19T10:24:52;33.08;;;21.65;;
69629;SDS011;56857;52.212;5.496;2022-08-19T10:27:17;36.10;;;22.88;;
69629;SDS011;56857;52.212;5.496;2022-08-19T10:29:43;33.47;;;19.45;;
69629;SDS011;56857;52.212;5.496;2022-08-19T10:32:08;30.38;;;20.30;;
69629;SDS011;56857;52.212;5.496;2022-08-19T10:34:34;30.45;;;18.90;;
69629;SDS011;56857;52.212;5.496;2022-08-19T10:37:01;27.73;;;18.05;;
69629;SDS011;56857;52.212;5.496;2022-08-19T10:39:29;28.27;;;18.63;;
69629;SDS011;56857;52.212;5.496;2022-08-19T10:41:55;30.65;;;20.38;;
69629;SDS011;56857;52.212;5.496;2022-08-19T10:44:20;28.52;;;20.52;;
69629;SDS011;56857;52.212;5.496;2022-08-19T10:46:46;29.20;;;18.17;;
69629;SDS011;56857;52.212;5.496;2022-08-19T10:49:11;30.40;;;17.98;;
69629;SDS011;56857;52.212;5.496;2022-08-19T10:51:37;21.48;;;14.75;;
69629;SDS011;56857;52.212;5.496;2022-08-19T10:54:04;22.35;;;15.57;;
69629;SDS011;56857;52.212;5.496;2022-08-19T10:56:30;23.38;;;14.85;;
69629;SDS011;56857;52.212;5.496;2022-08-19T10:58:56;22.20;;;14.45;;
69629;SDS011;56857;52.212;5.496;2022-08-19T11:01:22;24.08;;;14.10;;
69629;SDS011;56857;52.212;5.496;2022-08-19T11:03:47;21.10;;;13.10;;
69629;SDS011;56857;52.212;5.496;2022-08-19T11:06:12;18.80;;;13.00;;
69629;SDS011;56857;52.212;5.496;2022-08-19T11:08:37;17.88;;;13.73;;
69629;SDS011;56857;52.212;5.496;2022-08-19T11:11:03;18.65;;;13.55;;
69629;SDS011;56857;52.212;5.496;2022-08-19T11:13:30;20.02;;;13.38;;
69629;SDS011;56857;52.212;5.496;2022-08-19T11:15:59;19.98;;;12.15;;
69629;SDS011;56857;52.212;5.496;2022-08-19T11:18:36;22.08;;;14.20;;
69629;SDS011;56857;52.212;5.496;2022-08-19T11:21:06;19.23;;;12.32;;
69629;SDS011;56857;52.212;5.496;2022-08-19T11:23:33;22.20;;;14.35;;
69629;SDS011;56857;52.212;5.496;2022-08-19T11:25:58;19.38;;;13.88;;
69629;SDS011;56857;52.212;5.496;2022-08-19T11:28:24;18.00;;;12.82;;
69629;SDS011;56857;52.212;5.496;2022-08-19T11:30:49;23.13;;;15.02;;
69629;SDS011;56857;52.212;5.496;2022-08-19T11:33:14;23.52;;;14.15;;
69629;SDS011;56857;52.212;5.496;2022-08-19T11:35:40;21.08;;;13.85;;
69629;SDS011;56857;52.212;5.496;2022-08-19T11:38:05;19.40;;;13.05;;
69629;SDS011;56857;52.212;5.496;2022-08-19T11:40:30;19.17;;;14.07;;
69629;SDS011;56857;52.212;5.496;2022-08-19T11:42:56;20.63;;;12.82;;
69629;SDS011;56857;52.212;5.496;2022-08-19T11:45:22;21.55;;;13.65;;
69629;SDS011;56857;52.212;5.496;2022-08-19T11:47:48;19.40;;;13.00;;
69629;SDS011;56857;52.212;5.496;2022-08-19T11:50:14;20.30;;;12.93;;
69629;SDS011;56857;52.212;5.496;2022-08-19T11:52:40;17.38;;;12.85;;
69629;SDS011;56857;52.212;5.496;2022-08-19T11:55:06;17.30;;;12.10;;
69629;SDS011;56857;52.212;5.496;2022-08-19T11:57:32;18.67;;;12.77;;
69629;SDS011;56857;52.212;5.496;2022-08-19T11:59:57;18.45;;;12.93;;
69629;SDS011;56857;52.212;5.496;2022-08-19T12:02:23;22.48;;;17.20;;
69629;SDS011;56857;52.212;5.496;2022-08-19T12:04:48;19.58;;;14.35;;
69629;SDS011;56857;52.212;5.496;2022-08-19T12:07:14;17.90;;;12.90;;
69629;SDS011;56857;52.212;5.496;2022-08-19T12:09:40;20.10;;;14.32;;
69629;SDS011;56857;52.212;5.496;2022-08-19T12:12:06;22.23;;;15.07;;
69629;SDS011;56857;52.212;5.496;2022-08-19T12:14:31;17.55;;;13.27;;
69629;SDS011;56857;52.212;5.496;2022-08-19T12:16:57;20.48;;;15.00;;
69629;SDS011;56857;52.212;5.496;2022-08-19T12:19:23;22.08;;;15.20;;
69629;SDS011;56857;52.212;5.496;2022-08-19T12:21:48;23.08;;;16.13;;
69629;SDS011;56857;52.212;5.496;2022-08-19T12:24:14;23.42;;;16.50;;
69629;SDS011;56857;52.212;5.496;2022-08-19T12:26:40;24.67;;;16.25;;
69629;SDS011;56857;52.212;5.496;2022-08-19T12:29:05;20.45;;;15.25;;
69629;SDS011;56857;52.212;5.496;2022-08-19T12:31:32;25.90;;;18.55;;
69629;SDS011;56857;52.212;5.496;2022-08-19T12:33:58;28.17;;;19.42;;
69629;SDS011;56857;52.212;5.496;2022-08-19T12:36:23;24.00;;;17.60;;
69629;SDS011;56857;52.212;5.496;2022-08-19T12:38:48;28.55;;;19.88;;
69629;SDS011;56857;52.212;5.496;2022-08-19T12:41:15;29.25;;;21.05;;
69629;SDS011;56857;52.212;5.496;2022-08-19T12:43:41;30.60;;;19.73;;
69629;SDS011;56857;52.212;5.496;2022-08-19T12:46:07;34.28;;;21.73;;
69629;SDS011;56857;52.212;5.496;2022-08-19T12:48:33;32.53;;;21.52;;
69629;SDS011;56857;52.212;5.496;2022-08-19T12:50:58;34.40;;;23.13;;
69629;SDS011;56857;52.212;5.496;2022-08-19T12:53:24;33.15;;;20.70;;
69629;SDS011;56857;52.212;5.496;2022-08-19T12:55:56;33.97;;;22.90;;
69629;SDS011;56857;52.212;5.496;2022-08-19T12:58:22;31.77;;;22.08;;
69629;SDS011;56857;52.212;5.496;2022-08-19T13:00:48;36.15;;;24.65;;
69629;SDS011;56857;52.212;5.496;2022-08-19T13:03:13;31.23;;;21.83;;
69629;SDS011;56857;52.212;5.496;2022-08-19T13:05:38;30.98;;;22.25;;
69629;SDS011;56857;52.212;5.496;2022-08-19T13:08:04;23.35;;;16.17;;
69629;SDS011;56857;52.212;5.496;2022-08-19T13:10:31;23.35;;;16.38;;
69629;SDS011;56857;52.212;5.496;2022-08-19T13:12:58;21.13;;;14.63;;
69629;SDS011;56857;52.212;5.496;2022-08-19T13:15:23;26.33;;;17.73;;
69629;SDS011;56857;52.212;5.496;2022-08-19T13:17:49;26.20;;;18.23;;
69629;SDS011;56857;52.212;5.496;2022-08-19T13:20:17;20.35;;;12.93;;
69629;SDS011;56857;52.212;5.496;2022-08-19T13:22:44;20.58;;;15.10;;
69629;SDS011;56857;52.212;5.496;2022-08-19T13:25:10;17.23;;;12.38;;
69629;SDS011;56857;52.212;5.496;2022-08-19T13:27:37;19.80;;;13.57;;
69629;SDS011;56857;52.212;5.496;2022-08-19T13:30:04;21.33;;;14.00;;
69629;SDS011;56857;52.212;5.496;2022-08-19T13:32:31;17.02;;;12.05;;
69629;SDS011;56857;52.212;5.496;2022-08-19T13:34:57;18.77;;;13.32;;
69629;SDS011;56857;52.212;5.496;2022-08-19T13:37:22;17.95;;;11.52;;
69629;SDS011;56857;52.212;5.496;2022-08-19T13:39:47;14.52;;;9.55;;
69629;SDS011;56857;52.212;5.496;2022-08-19T13:42:13;15.20;;;11.65;;
69629;SDS011;56857;52.212;5.496;2022-08-19T13:44:38;19.02;;;13.95;;
69629;SDS011;56857;52.212;5.496;2022-08-19T13:47:04;15.82;;;12.05;;
69629;SDS011;56857;52.212;5.496;2022-08-19T13:49:30;15.30;;;11.55;;
69629;SDS011;56857;52.212;5.496;2022-08-19T13:51:56;17.00;;;12.43;;
69629;SDS011;56857;52.212;5.496;2022-08-19T13:54:21;15.75;;;12.23;;
69629;SDS011;56857;52.212;5.496;2022-08-19T13:56:48;14.07;;;10.35;;
69629;SDS011;56857;52.212;5.496;2022-08-19T13:59:13;17.63;;;12.50;;
69629;SDS011;56857;52.212;5.496;2022-08-19T14:01:39;16.23;;;11.55;;
69629;SDS011;56857;52.212;5.496;2022-08-19T14:04:05;18.70;;;12.20;;
69629;SDS011;56857;52.212;5.496;2022-08-19T14:06:31;17.55;;;13.38;;
69629;SDS011;56857;52.212;5.496;2022-08-19T14:08:56;19.08;;;13.70;;
69629;SDS011;56857;52.212;5.496;2022-08-19T14:11:22;19.58;;;13.80;;
69629;SDS011;56857;52.212;5.496;2022-08-19T14:13:47;20.33;;;14.85;;
69629;SDS011;56857;52.212;5.496;2022-08-19T14:16:13;18.23;;;13.60;;
69629;SDS011;56857;52.212;5.496;2022-08-19T14:18:39;23.02;;;15.05;;
69629;SDS011;56857;52.212;5.496;2022-08-19T14:21:05;21.80;;;14.52;;
69629;SDS011;56857;52.212;5.496;2022-08-19T14:23:31;22.17;;;14.98;;
69629;SDS011;56857;52.212;5.496;2022-08-19T14:26:03;20.88;;;14.93;;
69629;SDS011;56857;52.212;5.496;2022-08-19T14:28:30;23.77;;;16.17;;
69629;SDS011;56857;52.212;5.496;2022-08-19T14:30:55;22.48;;;17.35;;
69629;SDS011;56857;52.212;5.496;2022-08-19T14:33:20;28.55;;;16.45;;
69629;SDS011;56857;52.212;5.496;2022-08-19T14:35:46;23.08;;;16.20;;
69629;SDS011;56857;52.212;5.496;2022-08-19T14:38:15;22.80;;;16.63;;
69629;SDS011;56857;52.212;5.496;2022-08-19T14:40:42;21.13;;;14.95;;
69629;SDS011;56857;52.212;5.496;2022-08-19T14:43:08;24.73;;;15.82;;